Time;durP1;ratioP1;P1;durP2;ratioP2;P2;SDS_P1;SDS_P2;PMS_P1;PMS_P2;Temp;Humidity;BMP_temperature;BMP_pressure;BME280_temperature;BME280_humidity;BME280_pressure;Samples;Min_cycle;Max_cycle;Signal;HPM_P1;HPM_P2
2022/04/21 00:00:09;;;;;;;;;18.50;17.25;;;;;;;;5161532;27;10927;-74
2022/04/21 00:02:35;;;;;;;;;21.25;17.75;;;;;;;;5161299;27;11352;-75
2022/04/21 00:05:00;;;;;;;;;20.50;19.00;;;;;;;;5161524;27;12360;-75
2022/04/21 00:07:25;;;;;;;;;19.50;16.75;;;;;;;;5161713;27;11364;-76
2022/04/21 00:09:51;;;;;;;;;20.75;19.25;;;;;;;;5159456;27;13717;-74
2022/04/21 00:12:16;;;;;;;;;17.75;15.75;;;;;;;;5161273;27;12574;-74
2022/04/21 00:14:42;;;;;;;;;15.25;13.75;;;;;;;;5160760;27;12193;-75
2022/04/21 00:17:11;;;;;;;;;19.25;17.00;;;;;;;;5160774;27;9504;-75
2022/04/21 00:19:36;;;;;;;;;19.25;16.00;;;;;;;;5160607;27;11688;-74
2022/04/21 00:24:50;;;;;;;;;19.00;13.75;;;;;;;;5140574;27;8786;-76
2022/04/21 00:27:16;;;;;;;;;16.00;15.75;;;;;;;;5159173;27;11488;-75
2022/04/21 00:29:41;;;;;;;;;20.50;15.00;;;;;;;;5160980;27;8922;-74
2022/04/21 00:32:07;;;;;;;;;23.50;18.25;;;;;;;;5160781;27;13429;-75
2022/04/21 00:34:32;;;;;;;;;20.25;18.25;;;;;;;;5160981;27;11611;-74
2022/04/21 00:37:00;;;;;;;;;17.75;17.25;;;;;;;;5161544;27;9110;-75
2022/04/21 00:39:26;;;;;;;;;16.00;12.75;;;;;;;;5161030;27;11447;-76
2022/04/21 00:41:55;;;;;;;;;16.50;16.00;;;;;;;;5160392;27;11459;-76
2022/04/21 00:44:20;;;;;;;;;16.75;16.75;;;;;;;;5160685;27;10477;-76
2022/04/21 00:46:46;;;;;;;;;6.50;6.00;;;;;;;;5160392;27;11577;-75
2022/04/21 00:49:12;;;;;;;;;17.50;15.25;;;;;;;;5158635;27;24223;-74
2022/04/21 00:51:37;;;;;;;;;16.25;16.00;;;;;;;;5159602;27;23011;-76
2022/04/21 00:54:03;;;;;;;;;15.50;13.25;;;;;;;;5160378;27;11583;-76
2022/04/21 00:56:28;;;;;;;;;15.25;15.00;;;;;;;;5159977;27;11424;-75
2022/04/21 00:58:54;;;;;;;;;12.00;11.00;;;;;;;;5161084;27;11399;-75
2022/04/21 01:04:04;;;;;;;;;12.50;11.50;;;;;;;;5160660;27;11473;-76
2022/04/21 01:06:29;;;;;;;;;12.00;11.50;;;;;;;;5161078;27;11598;-75
2022/04/21 01:08:55;;;;;;;;;16.00;13.00;;;;;;;;5159696;27;8840;-75
2022/04/21 01:11:21;;;;;;;;;16.50;13.00;;;;;;;;5160262;27;12647;-75
2022/04/21 01:13:47;;;;;;;;;12.50;12.50;;;;;;;;5160220;27;9002;-76
2022/04/21 01:16:12;;;;;;;;;15.50;14.00;;;;;;;;5160673;27;11461;-75
2022/04/21 01:18:37;;;;;;;;;13.00;13.00;;;;;;;;5160135;27;11441;-74
2022/04/21 01:21:03;;;;;;;;;17.25;10.75;;;;;;;;5159452;27;10882;-79
2022/04/21 01:23:28;;;;;;;;;13.00;12.50;;;;;;;;5158910;27;13688;-80
2022/04/21 01:25:54;;;;;;;;;16.50;13.00;;;;;;;;5159575;27;11326;-79
2022/04/21 01:28:19;;;;;;;;;13.00;11.50;;;;;;;;5160789;27;11398;-78
2022/04/21 01:30:45;;;;;;;;;13.50;11.75;;;;;;;;5160887;27;11387;-79
2022/04/21 01:33:10;;;;;;;;;15.50;14.25;;;;;;;;5160808;27;9584;-78
2022/04/21 01:35:38;;;;;;;;;12.00;12.00;;;;;;;;5159331;27;10688;-80
2022/04/21 01:43:31;;;;;;;;;12.00;12.00;;;;;;;;5161438;27;12424;-83
2022/04/21 01:45:57;;;;;;;;;13.75;11.00;;;;;;;;5160664;27;11965;-83
2022/04/21 01:48:22;;;;;;;;;15.00;12.25;;;;;;;;5163298;27;10913;-83
2022/04/21 01:50:47;;;;;;;;;14.25;11.25;;;;;;;;5162551;27;11831;-82
2022/04/21 01:53:13;;;;;;;;;15.25;12.00;;;;;;;;5161480;27;10555;-82
2022/04/21 01:55:38;;;;;;;;;11.75;10.75;;;;;;;;5160878;27;11513;-83
2022/04/21 01:58:03;;;;;;;;;11.75;11.50;;;;;;;;5160503;27;11864;-82
2022/04/21 02:00:29;;;;;;;;;12.00;11.00;;;;;;;;5161214;27;8871;-83
2022/04/21 02:02:54;;;;;;;;;15.75;15.50;;;;;;;;5159974;27;11398;-82
2022/04/21 02:05:20;;;;;;;;;10.00;10.00;;;;;;;;5160888;27;11498;-82
2022/04/21 02:07:45;;;;;;;;;12.25;11.75;;;;;;;;5160853;27;11435;-82
2022/04/21 02:10:12;;;;;;;;;15.25;14.50;;;;;;;;5164316;27;11345;-82
2022/04/21 02:12:37;;;;;;;;;10.00;10.00;;;;;;;;5163964;27;11630;-82
2022/04/21 02:15:03;;;;;;;;;14.00;11.00;;;;;;;;5163934;27;11454;-83
2022/04/21 02:17:29;;;;;;;;;15.25;11.25;;;;;;;;5164069;27;8796;-83
2022/04/21 02:19:55;;;;;;;;;12.00;11.00;;;;;;;;5164050;27;11807;-82
2022/04/21 02:22:20;;;;;;;;;14.00;11.25;;;;;;;;5163443;27;11503;-82
2022/04/21 02:24:45;;;;;;;;;15.75;11.00;;;;;;;;5163672;27;11580;-82
2022/04/21 02:27:11;;;;;;;;;13.50;11.50;;;;;;;;5163684;27;11745;-83
2022/04/21 02:29:36;;;;;;;;;11.00;9.00;;;;;;;;5162790;27;11529;-83
2022/04/21 02:32:02;;;;;;;;;12.50;11.75;;;;;;;;5161411;27;22957;-83
2022/04/21 02:34:29;;;;;;;;;11.00;10.50;;;;;;;;5162949;27;22762;-83
2022/04/21 02:36:54;;;;;;;;;14.50;12.25;;;;;;;;5161131;27;14781;-83
2022/04/21 02:39:19;;;;;;;;;12.25;11.25;;;;;;;;5162936;27;11547;-83
2022/04/21 02:41:45;;;;;;;;;8.50;7.75;;;;;;;;5162571;27;10350;-83
2022/04/21 02:44:10;;;;;;;;;11.25;10.50;;;;;;;;5162393;27;23241;-83
2022/04/21 02:46:35;;;;;;;;;12.75;11.75;;;;;;;;5162266;27;22215;-83
2022/04/21 02:49:01;;;;;;;;;10.25;10.25;;;;;;;;5162741;27;12484;-83
2022/04/21 02:51:30;;;;;;;;;9.00;8.50;;;;;;;;5163146;27;10473;-83
2022/04/21 02:59:24;;;;;;;;;14.25;11.00;;;;;;;;5165877;27;11429;-83
2022/04/21 03:01:49;;;;;;;;;10.00;9.00;;;;;;;;5167863;27;11537;-84
2022/04/21 03:04:14;;;;;;;;;12.25;10.00;;;;;;;;5165175;27;21638;-84
2022/04/21 03:06:40;;;;;;;;;12.00;10.00;;;;;;;;5163857;27;22477;-83
2022/04/21 03:09:05;;;;;;;;;12.00;10.00;;;;;;;;5162985;27;8789;-83
2022/04/21 03:11:30;;;;;;;;;10.50;10.50;;;;;;;;5163403;27;8788;-83
2022/04/21 03:13:56;;;;;;;;;11.00;10.00;;;;;;;;5163064;27;13857;-86
2022/04/21 03:16:21;;;;;;;;;11.50;8.00;;;;;;;;5163047;27;12471;-81
2022/04/21 03:18:46;;;;;;;;;8.50;8.50;;;;;;;;5161467;27;22416;-80
2022/04/21 03:26:39;;;;;;;;;11.75;11.25;;;;;;;;5159597;27;22469;-80
2022/04/21 03:29:05;;;;;;;;;7.25;7.25;;;;;;;;5162303;27;11623;-80
2022/04/21 03:31:30;;;;;;;;;11.00;9.00;;;;;;;;5162234;27;22813;-80
2022/04/21 03:33:55;;;;;;;;;10.75;9.00;;;;;;;;5161597;27;22433;-80
2022/04/21 03:36:21;;;;;;;;;15.25;11.00;;;;;;;;5162406;27;9338;-79
2022/04/21 03:38:46;;;;;;;;;13.25;10.25;;;;;;;;5161530;27;22575;-79
2022/04/21 03:41:11;;;;;;;;;11.75;10.75;;;;;;;;5162095;27;12021;-80
2022/04/21 03:43:37;;;;;;;;;12.00;12.00;;;;;;;;5162740;27;10360;-78
2022/04/21 03:46:02;;;;;;;;;13.50;13.50;;;;;;;;5162557;27;11605;-79
2022/04/21 03:48:29;;;;;;;;;13.75;12.00;;;;;;;;5162582;27;11434;-78
2022/04/21 03:50:55;;;;;;;;;13.25;13.25;;;;;;;;5161398;27;10596;-78
2022/04/21 03:53:21;;;;;;;;;16.00;14.50;;;;;;;;5162118;27;11463;-79
2022/04/21 03:55:46;;;;;;;;;14.00;14.00;;;;;;;;5161317;27;11719;-80
2022/04/21 03:58:11;;;;;;;;;16.25;15.75;;;;;;;;5161578;27;11848;-81
2022/04/21 04:00:36;;;;;;;;;21.25;17.75;;;;;;;;5162137;27;11789;-80
2022/04/21 04:03:02;;;;;;;;;18.00;18.00;;;;;;;;5162070;27;11939;-80
2022/04/21 04:05:27;;;;;;;;;20.00;16.75;;;;;;;;5162059;27;13198;-80
2022/04/21 04:10:52;;;;;;;;;12.00;11.00;;;;;;;;5162386;27;13256;-80
2022/04/21 04:13:21;;;;;;;;;17.00;16.25;;;;;;;;5160405;27;12687;-80
2022/04/21 04:15:48;;;;;;;;;14.00;14.00;;;;;;;;5162141;27;11690;-79
2022/04/21 04:18:17;;;;;;;;;20.00;16.00;;;;;;;;5161262;27;11854;-80
2022/04/21 04:20:43;;;;;;;;;19.00;15.00;;;;;;;;5161496;27;11868;-78
2022/04/21 04:23:08;;;;;;;;;16.00;15.50;;;;;;;;5161313;27;11553;-79
2022/04/21 04:25:35;;;;;;;;;16.00;15.25;;;;;;;;5161418;27;11597;-79
2022/04/21 04:28:00;;;;;;;;;18.50;18.50;;;;;;;;5161204;27;8766;-78
2022/04/21 04:30:26;;;;;;;;;15.25;15.25;;;;;;;;5160893;27;12845;-80
2022/04/21 04:32:51;;;;;;;;;17.75;15.00;;;;;;;;5161135;27;11797;-80
2022/04/21 04:35:16;;;;;;;;;19.00;17.50;;;;;;;;5161795;27;12493;-79
2022/04/21 04:37:42;;;;;;;;;16.00;15.00;;;;;;;;5161657;27;11416;-80
2022/04/21 04:40:08;;;;;;;;;15.00;14.00;;;;;;;;5161346;27;11468;-80
2022/04/21 04:42:33;;;;;;;;;15.75;14.50;;;;;;;;5160918;27;9017;-79
2022/04/21 04:47:42;;;;;;;;;18.00;15.25;;;;;;;;5161462;27;9160;-80
2022/04/21 04:50:08;;;;;;;;;22.75;17.00;;;;;;;;5159166;27;11488;-79
2022/04/21 04:52:34;;;;;;;;;15.75;15.25;;;;;;;;5160800;27;13892;-80
2022/04/21 04:54:59;;;;;;;;;24.75;23.00;;;;;;;;5160538;27;14498;-79
2022/04/21 04:57:24;;;;;;;;;20.50;19.00;;;;;;;;5160352;27;14611;-80
2022/04/21 04:59:50;;;;;;;;;21.25;19.50;;;;;;;;5160515;27;11405;-79
2022/04/21 05:02:17;;;;;;;;;20.50;15.50;;;;;;;;5159968;27;11372;-80
2022/04/21 05:04:42;;;;;;;;;22.75;17.50;;;;;;;;5160912;27;10659;-79
2022/04/21 05:07:08;;;;;;;;;11.50;10.75;;;;;;;;5160708;27;11466;-80
2022/04/21 05:09:33;;;;;;;;;18.50;15.00;;;;;;;;5160697;27;13199;-80
2022/04/21 05:11:58;;;;;;;;;19.00;15.75;;;;;;;;5160961;27;11882;-79
2022/04/21 05:14:24;;;;;;;;;14.25;12.50;;;;;;;;5160484;27;11403;-79
2022/04/21 05:16:51;;;;;;;;;22.50;19.75;;;;;;;;5160104;27;11682;-80
2022/04/21 05:19:17;;;;;;;;;14.75;14.75;;;;;;;;5160916;27;13707;-80
2022/04/21 05:21:43;;;;;;;;;22.75;19.00;;;;;;;;5160187;27;12509;-79
2022/04/21 05:24:10;;;;;;;;;16.00;15.00;;;;;;;;5160514;27;13221;-81
2022/04/21 05:26:37;;;;;;;;;18.50;18.25;;;;;;;;5161418;27;12805;-80
2022/04/21 05:30:55;;;;;;;;;21.50;15.75;;;;;;;;5160970;27;11692;-82
2022/04/21 05:31:55;;;;;;;;;21.00;18.00;;;;;;;;5160784;27;12727;-81
2022/04/21 05:34:21;;;;;;;;;19.75;16.75;;;;;;;;5160962;27;12220;-81
2022/04/21 05:36:46;;;;;;;;;21.25;18.00;;;;;;;;5161442;27;13351;-81
2022/04/21 05:39:12;;;;;;;;;18.50;16.00;;;;;;;;5159328;27;15455;-81
2022/04/21 05:41:37;;;;;;;;;23.25;18.00;;;;;;;;5160884;27;12180;-78
2022/04/21 05:44:03;;;;;;;;;17.50;15.00;;;;;;;;5156278;27;12674;-81
2022/04/21 05:46:29;;;;;;;;;23.75;20.25;;;;;;;;5152508;27;12152;-77
2022/04/21 05:48:54;;;;;;;;;21.75;17.75;;;;;;;;5153227;27;13385;-83
2022/04/21 05:51:19;;;;;;;;;18.50;18.00;;;;;;;;5151186;27;11337;-84
2022/04/21 05:53:49;;;;;;;;;18.00;16.00;;;;;;;;5152667;27;13451;-75
2022/04/21 05:56:14;;;;;;;;;18.00;15.25;;;;;;;;5152183;27;9624;-71
2022/04/21 05:58:40;;;;;;;;;16.75;15.75;;;;;;;;5150232;27;11623;-71
2022/04/21 06:01:09;;;;;;;;;18.50;18.00;;;;;;;;5153002;27;11449;-73
2022/04/21 06:03:35;;;;;;;;;11.75;11.00;;;;;;;;5151590;27;11464;-81
2022/04/21 06:06:01;;;;;;;;;19.25;16.50;;;;;;;;5150090;27;11574;-79
2022/04/21 06:08:26;;;;;;;;;18.00;14.75;;;;;;;;5151185;27;11854;-80
2022/04/21 06:10:51;;;;;;;;;15.75;14.50;;;;;;;;5151094;27;11403;-73
2022/04/21 06:13:18;;;;;;;;;11.00;10.00;;;;;;;;5152677;27;11621;-83
2022/04/21 06:15:46;;;;;;;;;9.50;9.50;;;;;;;;5153630;27;11473;-76
2022/04/21 06:18:11;;;;;;;;;12.25;11.00;;;;;;;;5149316;27;22235;-81
2022/04/21 06:20:37;;;;;;;;;9.25;9.00;;;;;;;;5149969;27;22218;-78
2022/04/21 06:23:03;;;;;;;;;11.00;11.00;;;;;;;;5150944;27;22503;-78
2022/04/21 06:25:28;;;;;;;;;11.00;10.00;;;;;;;;5152295;27;22385;-78
2022/04/21 06:27:53;;;;;;;;;15.50;11.50;;;;;;;;5150713;27;8792;-78
2022/04/21 06:30:19;;;;;;;;;15.25;11.75;;;;;;;;5152293;27;12186;-77
2022/04/21 06:32:44;;;;;;;;;14.25;12.50;;;;;;;;5149701;27;11057;-77
2022/04/21 06:35:10;;;;;;;;;10.75;9.75;;;;;;;;5150376;27;11987;-77
2022/04/21 06:37:35;;;;;;;;;11.75;11.75;;;;;;;;5152410;27;21638;-77
2022/04/21 06:40:01;;;;;;;;;15.00;13.00;;;;;;;;5149536;27;21391;-76
2022/04/21 06:42:26;;;;;;;;;13.50;13.00;;;;;;;;5151365;27;11651;-75
2022/04/21 06:50:19;;;;;;;;;17.75;15.00;;;;;;;;5150414;27;14208;-76
2022/04/21 06:52:44;;;;;;;;;17.75;14.00;;;;;;;;5151107;27;12359;-77
2022/04/21 06:55:10;;;;;;;;;11.75;10.50;;;;;;;;5151656;27;9368;-75
2022/04/21 06:57:35;;;;;;;;;18.75;15.75;;;;;;;;5148391;27;11528;-76
2022/04/21 07:00:00;;;;;;;;;20.25;20.00;;;;;;;;5151897;27;11563;-74
2022/04/21 07:02:27;;;;;;;;;23.00;17.50;;;;;;;;5150448;27;13655;-74
2022/04/21 07:04:52;;;;;;;;;14.25;14.25;;;;;;;;5147648;27;12624;-73
2022/04/21 07:07:17;;;;;;;;;10.50;10.50;;;;;;;;5151460;27;13204;-72
2022/04/21 07:09:43;;;;;;;;;12.50;9.00;;;;;;;;5149691;27;11368;-71
2022/04/21 07:12:09;;;;;;;;;30.75;28.25;;;;;;;;5149643;27;22586;-73
2022/04/21 07:14:35;;;;;;;;;60.00;49.33;;;;;;;;5151041;27;22881;-73
2022/04/21 07:17:00;;;;;;;;;32.75;29.75;;;;;;;;5148597;27;12205;-74
2022/04/21 07:19:25;;;;;;;;;20.50;19.00;;;;;;;;5150387;27;12667;-80
2022/04/21 07:21:51;;;;;;;;;14.75;10.50;;;;;;;;5147656;27;14230;-83
2022/04/21 07:24:16;;;;;;;;;11.00;8.50;;;;;;;;5150366;27;15307;-74
2022/04/21 07:26:41;;;;;;;;;11.50;10.00;;;;;;;;5148046;27;23703;-75
2022/04/21 07:29:07;;;;;;;;;15.00;12.50;;;;;;;;5149886;27;21627;-77
2022/04/21 07:31:32;;;;;;;;;11.50;11.50;;;;;;;;5149532;27;13545;-76
2022/04/21 07:33:57;;;;;;;;;10.75;9.50;;;;;;;;5148993;27;11448;-74
2022/04/21 07:36:22;;;;;;;;;6.00;6.00;;;;;;;;5150215;27;21372;-77
2022/04/21 07:38:49;;;;;;;;;6.75;6.75;;;;;;;;5149742;27;21460;-75
2022/04/21 07:41:14;;;;;;;;;7.00;6.00;;;;;;;;5147134;27;8993;-77
2022/04/21 07:43:42;;;;;;;;;23.25;22.00;;;;;;;;5150614;27;12301;-74
2022/04/21 07:46:11;;;;;;;;;26.75;25.75;;;;;;;;5147832;27;24081;-74
2022/04/21 07:51:20;;;;;;;;;15.25;11.50;;;;;;;;5151654;27;11473;-74
2022/04/21 07:53:45;;;;;;;;;10.00;7.00;;;;;;;;5150293;27;11545;-74
2022/04/21 07:56:11;;;;;;;;;12.25;12.00;;;;;;;;5148759;27;21452;-74
2022/04/21 07:58:36;;;;;;;;;14.00;7.50;;;;;;;;5148693;27;21656;-74
2022/04/21 08:01:01;;;;;;;;;9.50;8.00;;;;;;;;5150516;27;22071;-76
2022/04/21 08:03:26;;;;;;;;;11.75;10.00;;;;;;;;5148092;27;21620;-75
2022/04/21 08:05:53;;;;;;;;;10.75;10.00;;;;;;;;5147480;27;23486;-81
2022/04/21 08:08:19;;;;;;;;;12.75;12.00;;;;;;;;5148438;27;8785;-80
2022/04/21 08:10:44;;;;;;;;;1.00;1.00;;;;;;;;5149095;27;12231;-81
2022/04/21 08:13:15;;;;;;;;;12.00;11.50;;;;;;;;5149640;27;22322;-81
2022/04/21 08:15:40;;;;;;;;;13.50;9.00;;;;;;;;5149210;27;25049;-81
2022/04/21 08:18:07;;;;;;;;;25.00;21.50;;;;;;;;5148483;27;22162;-81
2022/04/21 08:20:34;;;;;;;;;15.50;12.50;;;;;;;;5149050;27;22603;-82
2022/04/21 08:22:59;;;;;;;;;20.00;15.50;;;;;;;;5147581;27;12602;-80
2022/04/21 08:33:37;;;;;;;;;8.00;8.00;;;;;;;;5160574;27;16318;-78
2022/04/21 08:36:03;;;;;;;;;12.00;11.00;;;;;;;;5159844;27;24460;-80
2022/04/21 08:38:29;;;;;;;;;12.00;12.00;;;;;;;;5160855;27;22243;-87
2022/04/21 08:40:56;;;;;;;;;10.00;10.00;;;;;;;;5161582;27;11458;-88
2022/04/21 08:43:22;;;;;;;;;9.25;8.00;;;;;;;;5157152;27;11600;-87
2022/04/21 08:45:49;;;;;;;;;7.75;7.75;;;;;;;;5150382;27;22569;-86
2022/04/21 08:48:16;;;;;;;;;8.75;8.00;;;;;;;;5150262;27;11434;-87
2022/04/21 08:50:41;;;;;;;;;7.50;7.00;;;;;;;;5140241;27;11734;-87
2022/04/21 08:53:07;;;;;;;;;6.25;6.25;;;;;;;;5140147;27;11488;-87
2022/04/21 08:55:33;;;;;;;;;7.00;7.00;;;;;;;;5160741;27;12072;-88
2022/04/21 08:57:58;;;;;;;;;7.00;7.00;;;;;;;;5162610;27;11461;-85
2022/04/21 09:00:24;;;;;;;;;12.25;10.00;;;;;;;;5161609;27;9489;-82
2022/04/21 09:02:50;;;;;;;;;7.75;7.00;;;;;;;;5159172;27;24258;-85
2022/04/21 09:05:16;;;;;;;;;4.75;3.00;;;;;;;;5160470;27;24061;-85
2022/04/21 09:07:52;;;;;;;;;7.00;3.00;;;;;;;;5159595;27;11566;-82
2022/04/21 09:10:20;;;;;;;;;8.50;7.00;;;;;;;;5150049;27;8919;-80
2022/04/21 09:12:52;;;;;;;;;8.75;8.00;;;;;;;;5148248;27;11456;-82
2022/04/21 09:15:19;;;;;;;;;9.25;9.00;;;;;;;;5147143;27;11461;-80
2022/04/21 09:17:46;;;;;;;;;12.50;11.00;;;;;;;;5152507;27;11955;-81
2022/04/21 09:20:12;;;;;;;;;12.00;8.75;;;;;;;;5148445;27;22407;-81
2022/04/21 09:22:42;;;;;;;;;13.00;13.00;;;;;;;;5148758;27;22620;-82
2022/04/21 09:25:07;;;;;;;;;15.50;12.75;;;;;;;;5151178;27;22082;-79
2022/04/21 09:27:40;;;;;;;;;11.75;11.00;;;;;;;;5147437;27;13365;-82
2022/04/21 09:30:10;;;;;;;;;8.00;8.00;;;;;;;;5150179;27;11691;-87
2022/04/21 09:32:35;;;;;;;;;9.00;8.75;;;;;;;;5144109;27;23470;-79
2022/04/21 09:35:01;;;;;;;;;7.25;7.25;;;;;;;;5143742;27;11649;-80
2022/04/21 09:37:26;;;;;;;;;11.00;11.00;;;;;;;;5144181;27;10942;-85
2022/04/21 09:39:52;;;;;;;;;7.00;6.00;;;;;;;;5144468;27;22568;-84
2022/04/21 09:42:24;;;;;;;;;8.50;8.50;;;;;;;;5139876;27;22740;-86
2022/04/21 09:47:33;;;;;;;;;4.25;4.25;;;;;;;;5140112;27;11332;-84
2022/04/21 09:50:10;;;;;;;;;4.75;4.75;;;;;;;;5139955;27;11673;-78
2022/04/21 09:52:36;;;;;;;;;4.00;4.00;;;;;;;;5139548;27;8780;-79
2022/04/21 09:55:18;;;;;;;;;3.25;3.25;;;;;;;;5137921;27;11073;-78
2022/04/21 09:57:44;;;;;;;;;4.75;3.75;;;;;;;;5147001;27;13076;-77
2022/04/21 10:00:09;;;;;;;;;3.75;3.75;;;;;;;;5147401;27;10833;-76
2022/04/21 10:02:35;;;;;;;;;5.50;4.00;;;;;;;;5149160;27;8994;-78
2022/04/21 10:05:00;;;;;;;;;3.00;3.00;;;;;;;;5149819;27;11380;-76
2022/04/21 10:07:26;;;;;;;;;2.25;2.25;;;;;;;;5147704;27;10326;-77
2022/04/21 10:09:52;;;;;;;;;3.50;2.00;;;;;;;;5147322;27;14107;-76
2022/04/21 10:12:17;;;;;;;;;2.00;2.00;;;;;;;;5149301;27;11795;-76
2022/04/21 10:14:44;;;;;;;;;4.00;3.00;;;;;;;;5146899;27;12304;-76
2022/04/21 10:17:10;;;;;;;;;3.75;3.75;;;;;;;;5149633;27;8958;-76
2022/04/21 10:19:35;;;;;;;;;4.50;3.25;;;;;;;;5147753;27;11607;-76
2022/04/21 10:22:03;;;;;;;;;3.25;3.25;;;;;;;;5146933;27;10285;-76
2022/04/21 10:24:29;;;;;;;;;2.00;1.00;;;;;;;;5149565;27;9347;-75
2022/04/21 10:26:56;;;;;;;;;6.50;6.50;;;;;;;;5145953;27;11709;-77
2022/04/21 10:29:22;;;;;;;;;4.00;4.00;;;;;;;;5149932;27;11625;-78
2022/04/21 10:32:00;;;;;;;;;2.00;2.00;;;;;;;;5158808;27;11415;-76
2022/04/21 10:34:27;;;;;;;;;3.00;3.00;;;;;;;;5159514;27;11581;-78
2022/04/21 10:37:12;;;;;;;;;3.00;3.00;;;;;;;;5161114;27;10705;-77
2022/04/21 10:39:39;;;;;;;;;2.75;2.75;;;;;;;;5155078;27;10579;-77
2022/04/21 10:42:18;;;;;;;;;3.00;3.00;;;;;;;;5155463;27;13407;-77
2022/04/21 10:44:43;;;;;;;;;4.75;4.50;;;;;;;;5157290;27;11434;-75
2022/04/21 10:47:32;;;;;;;;;2.00;2.00;;;;;;;;5155913;27;11872;-77
2022/04/21 10:49:59;;;;;;;;;3.00;3.00;;;;;;;;5143162;27;11486;-75
2022/04/21 10:57:47;;;;;;;;;3.25;2.00;;;;;;;;5169825;27;10412;-76
2022/04/21 11:00:22;;;;;;;;;2.00;2.00;;;;;;;;5170538;27;11421;-80
2022/04/21 11:02:47;;;;;;;;;2.00;2.00;;;;;;;;5170709;27;10671;-80
2022/04/21 11:05:22;;;;;;;;;3.50;3.00;;;;;;;;5167277;27;10788;-80
2022/04/21 11:07:54;;;;;;;;;3.75;3.75;;;;;;;;5156207;27;10383;-79
2022/04/21 11:10:37;;;;;;;;;4.00;3.00;;;;;;;;5159892;27;11670;-79
2022/04/21 11:13:03;;;;;;;;;4.00;3.00;;;;;;;;5158632;27;11575;-78
2022/04/21 11:15:33;;;;;;;;;3.00;3.00;;;;;;;;5161272;27;10734;-78
2022/04/21 11:18:01;;;;;;;;;3.25;3.25;;;;;;;;5158367;27;10531;-78
2022/04/21 11:20:26;;;;;;;;;3.00;3.00;;;;;;;;5157154;27;10605;-79
2022/04/21 11:22:52;;;;;;;;;3.25;2.75;;;;;;;;5161147;27;10700;-79
2022/04/21 11:25:17;;;;;;;;;3.00;2.00;;;;;;;;5160510;27;10254;-81
2022/04/21 11:27:45;;;;;;;;;3.00;3.00;;;;;;;;5170120;27;9599;-83
2022/04/21 11:30:11;;;;;;;;;3.25;3.25;;;;;;;;5170048;27;9383;-85
2022/04/21 11:32:37;;;;;;;;;4.00;4.00;;;;;;;;5170414;27;10664;-80
2022/04/21 11:35:07;;;;;;;;;5.25;4.00;;;;;;;;5164257;27;11958;-79
2022/04/21 11:37:45;;;;;;;;;3.00;3.00;;;;;;;;5157529;27;10821;-79
2022/04/21 11:40:18;;;;;;;;;3.25;2.25;;;;;;;;5159347;27;10681;-79
2022/04/21 11:42:43;;;;;;;;;3.00;3.00;;;;;;;;5159332;27;10584;-80
2022/04/21 11:45:08;;;;;;;;;3.00;3.00;;;;;;;;5155338;27;10558;-76
2022/04/21 11:47:34;;;;;;;;;5.00;4.00;;;;;;;;5147597;27;8772;-76
2022/04/21 11:49:59;;;;;;;;;4.75;3.00;;;;;;;;5147724;27;8780;-80
2022/04/21 11:52:25;;;;;;;;;2.50;2.50;;;;;;;;5148601;27;10348;-80
2022/04/21 11:55:00;;;;;;;;;3.75;3.00;;;;;;;;5152571;27;13267;-79
2022/04/21 11:57:44;;;;;;;;;3.00;3.00;;;;;;;;5158483;27;11855;-79
2022/04/21 12:00:15;;;;;;;;;3.00;3.00;;;;;;;;5154101;27;10458;-79
2022/04/21 12:08:11;;;;;;;;;5.00;5.00;;;;;;;;5155394;27;10442;-79
2022/04/21 12:10:37;;;;;;;;;3.75;3.75;;;;;;;;5155152;27;10738;-79
2022/04/21 12:13:02;;;;;;;;;3.50;3.50;;;;;;;;5159407;27;11294;-78
2022/04/21 12:15:29;;;;;;;;;4.75;3.50;;;;;;;;5153811;27;8811;-78
2022/04/21 12:17:58;;;;;;;;;4.75;4.75;;;;;;;;5157644;27;9063;-77
2022/04/21 12:20:23;;;;;;;;;3.50;3.50;;;;;;;;5155193;27;11559;-80
2022/04/21 12:22:49;;;;;;;;;4.25;4.25;;;;;;;;5143697;27;11818;-76
2022/04/21 12:25:14;;;;;;;;;5.00;5.00;;;;;;;;5140214;27;11447;-76
2022/04/21 12:27:42;;;;;;;;;4.00;4.00;;;;;;;;5144596;27;11304;-76
2022/04/21 12:30:08;;;;;;;;;3.50;3.00;;;;;;;;5150101;27;8808;-76
2022/04/21 12:32:34;;;;;;;;;4.75;3.00;;;;;;;;5156406;27;10814;-73
2022/04/21 12:35:02;;;;;;;;;3.50;3.50;;;;;;;;5161358;27;10819;-74
2022/04/21 12:37:31;;;;;;;;;4.00;4.00;;;;;;;;5145442;27;11383;-72
2022/04/21 12:39:57;;;;;;;;;3.00;3.00;;;;;;;;5139729;27;12772;-72
2022/04/21 12:42:23;;;;;;;;;6.00;4.75;;;;;;;;5140577;27;10914;-74
2022/04/21 12:44:50;;;;;;;;;3.00;3.00;;;;;;;;5140372;27;11388;-75
2022/04/21 12:47:17;;;;;;;;;3.50;3.00;;;;;;;;5140315;27;11383;-74
2022/04/21 12:49:52;;;;;;;;;4.25;3.75;;;;;;;;5140366;27;10953;-78
2022/04/21 12:52:33;;;;;;;;;4.75;4.75;;;;;;;;5140338;27;11408;-73
2022/04/21 12:54:59;;;;;;;;;5.00;4.00;;;;;;;;5139892;27;11145;-77
2022/04/21 12:57:25;;;;;;;;;4.00;4.00;;;;;;;;5139867;27;11915;-75
2022/04/21 12:59:50;;;;;;;;;3.50;3.50;;;;;;;;5139666;27;8815;-75
2022/04/21 13:02:16;;;;;;;;;4.25;4.25;;;;;;;;5148662;27;11356;-73
2022/04/21 13:04:41;;;;;;;;;4.50;4.50;;;;;;;;5148575;27;11351;-74
2022/04/21 13:07:10;;;;;;;;;3.00;3.00;;;;;;;;5149237;27;9078;-74
2022/04/21 13:09:35;;;;;;;;;1.75;1.75;;;;;;;;5147256;27;11378;-75
2022/04/21 13:12:01;;;;;;;;;5.00;4.00;;;;;;;;5148513;27;11769;-74
2022/04/21 13:14:26;;;;;;;;;5.75;4.75;;;;;;;;5148224;27;11569;-75
2022/04/21 13:16:51;;;;;;;;;3.25;3.25;;;;;;;;5144525;27;9125;-73
2022/04/21 13:19:17;;;;;;;;;3.00;3.00;;;;;;;;5151246;27;10290;-74
2022/04/21 13:21:57;;;;;;;;;2.75;2.75;;;;;;;;5146858;27;8839;-74
2022/04/21 13:24:24;;;;;;;;;3.50;3.50;;;;;;;;5147962;27;11578;-74
2022/04/21 13:26:50;;;;;;;;;5.00;4.50;;;;;;;;5139572;27;12358;-74
2022/04/21 13:29:15;;;;;;;;;3.25;3.00;;;;;;;;5139684;27;11420;-73
2022/04/21 13:34:24;;;;;;;;;5.00;4.00;;;;;;;;5154363;27;11344;-74
2022/04/21 13:36:49;;;;;;;;;3.50;3.50;;;;;;;;5160238;27;11451;-74
2022/04/21 13:39:15;;;;;;;;;5.25;5.00;;;;;;;;5160049;27;11775;-75
2022/04/21 13:41:41;;;;;;;;;4.25;3.00;;;;;;;;5159419;27;11532;-75
2022/04/21 13:44:06;;;;;;;;;5.00;5.00;;;;;;;;5155634;27;11419;-79
2022/04/21 13:46:33;;;;;;;;;3.25;3.25;;;;;;;;5140326;27;10256;-75
2022/04/21 13:48:58;;;;;;;;;3.00;3.00;;;;;;;;5153523;27;11372;-75
2022/04/21 13:51:24;;;;;;;;;2.75;2.75;;;;;;;;5160328;27;11369;-75
2022/04/21 13:53:50;;;;;;;;;5.50;5.50;;;;;;;;5160061;27;11445;-75
2022/04/21 13:56:15;;;;;;;;;4.75;4.00;;;;;;;;5159519;27;11445;-75
2022/04/21 13:58:41;;;;;;;;;3.00;3.00;;;;;;;;5158717;27;11813;-74
2022/04/21 14:01:06;;;;;;;;;3.25;3.00;;;;;;;;5160095;27;10253;-75
2022/04/21 14:03:36;;;;;;;;;5.00;3.50;;;;;;;;5159481;27;8939;-75
2022/04/21 14:06:06;;;;;;;;;3.50;3.00;;;;;;;;5164397;27;11365;-75
2022/04/21 14:08:32;;;;;;;;;4.00;4.00;;;;;;;;5164490;27;11526;-74
2022/04/21 14:10:58;;;;;;;;;4.00;3.25;;;;;;;;5163626;27;11365;-75
2022/04/21 14:13:23;;;;;;;;;3.25;3.25;;;;;;;;5163785;27;11379;-76
2022/04/21 14:15:49;;;;;;;;;3.00;3.00;;;;;;;;5163750;27;9099;-76
2022/04/21 14:18:15;;;;;;;;;3.00;3.00;;;;;;;;5163490;27;8904;-76
2022/04/21 14:20:41;;;;;;;;;4.00;4.00;;;;;;;;5163605;27;11349;-76
2022/04/21 14:23:06;;;;;;;;;3.50;3.50;;;;;;;;5162702;27;9156;-74
2022/04/21 14:25:31;;;;;;;;;2.00;2.00;;;;;;;;5162560;27;13115;-76
2022/04/21 14:27:57;;;;;;;;;4.25;3.25;;;;;;;;5163817;27;11620;-76
2022/04/21 14:30:22;;;;;;;;;4.00;4.00;;;;;;;;5164213;27;11383;-74
2022/04/21 14:32:47;;;;;;;;;4.50;2.25;;;;;;;;5163501;27;11042;-75
2022/04/21 14:35:12;;;;;;;;;4.50;4.50;;;;;;;;5163605;27;10401;-74
2022/04/21 14:45:49;;;;;;;;;4.00;4.00;;;;;;;;5162782;27;11698;-75
2022/04/21 14:48:15;;;;;;;;;4.25;4.25;;;;;;;;5162989;27;11424;-74
2022/04/21 14:50:40;;;;;;;;;3.50;3.50;;;;;;;;5161403;27;8802;-79
2022/04/21 14:53:05;;;;;;;;;3.25;2.50;;;;;;;;5162067;27;13700;-75
2022/04/21 14:55:32;;;;;;;;;3.00;3.00;;;;;;;;5160665;27;9888;-81
2022/04/21 14:57:57;;;;;;;;;3.50;3.50;;;;;;;;5159996;27;10912;-74
2022/04/21 15:00:23;;;;;;;;;4.00;3.00;;;;;;;;5163162;27;11477;-77
2022/04/21 15:02:48;;;;;;;;;3.00;3.00;;;;;;;;5162259;27;11442;-74
2022/04/21 15:05:14;;;;;;;;;3.75;3.00;;;;;;;;5162606;27;11473;-73
2022/04/21 15:07:39;;;;;;;;;39.25;33.00;;;;;;;;5153782;27;8805;-73
2022/04/21 15:10:05;;;;;;;;;56.67;46.67;;;;;;;;5150911;27;23927;-72
2022/04/21 15:12:31;;;;;;;;;12.00;12.00;;;;;;;;5150970;27;13426;-74
2022/04/21 15:16:20;;;;;;;;;13.50;11.00;;;;;;;;5179772;27;88084;-72
2022/04/21 15:18:45;;;;;;;;;12.50;8.75;;;;;;;;5176145;27;22672;-73
2022/04/21 15:21:10;;;;;;;;;5.00;5.00;;;;;;;;5174366;27;22268;-71
2022/04/21 15:23:36;;;;;;;;;2.00;2.00;;;;;;;;5175862;27;22721;-72
2022/04/21 15:26:01;;;;;;;;;0.00;0.00;;;;;;;;5176242;27;8839;-73
2022/04/21 15:28:27;;;;;;;;;2.00;2.00;;;;;;;;5176058;27;8878;-72
2022/04/21 15:30:52;;;;;;;;;1.00;1.00;;;;;;;;5176432;27;9570;-71
2022/04/21 15:33:17;;;;;;;;;3.00;2.50;;;;;;;;5176016;27;8910;-72
2022/04/21 15:35:43;;;;;;;;;4.00;4.00;;;;;;;;5175758;27;11525;-73